Time;durP1;ratioP1;P1;durP2;ratioP2;P2;SDS_P1;SDS_P2;PMS_P1;PMS_P2;Temp;Humidity;BMP_temperature;BMP_pressure;BME280_temperature;BME280_humidity;BME280_pressure;Samples;Min_cycle;Max_cycle;Signal;HPM_P1;HPM_P2
2022/03/26 04:02:14;;;;;;;4.53;3.38;;;17.60;48.50;;;;;;5101946;22;45516;-60
2022/03/26 04:04:41;;;;;;;4.40;3.70;;;17.50;48.50;;;;;;4965815;28;45325;-58
2022/03/26 04:07:07;;;;;;;4.68;3.67;;;17.60;48.50;;;;;;4973688;28;45617;-57
2022/03/26 04:09:33;;;;;;;4.38;3.55;;;17.60;48.50;;;;;;4973799;28;46064;-57
2022/03/26 04:11:59;;;;;;;4.18;3.40;;;17.50;48.50;;;;;;4974885;28;45621;-58
2022/03/26 04:14:25;;;;;;;4.18;3.75;;;17.50;48.50;;;;;;4969194;28;45498;-58
2022/03/26 04:16:50;;;;;;;5.18;4.15;;;17.50;48.50;;;;;;4972994;28;45216;-57
2022/03/26 04:19:18;;;;;;;4.68;3.47;;;17.50;48.50;;;;;;4965007;28;46075;-60
2022/03/26 04:21:44;;;;;;;4.18;3.35;;;17.50;48.50;;;;;;4971918;28;44938;-57
2022/03/26 04:24:09;;;;;;;3.92;3.55;;;17.50;48.50;;;;;;4969296;28;44732;-53
2022/03/26 04:26:35;;;;;;;5.40;4.25;;;17.50;48.50;;;;;;4974592;28;45222;-55
2022/03/26 04:29:01;;;;;;;4.15;3.65;;;17.50;48.50;;;;;;4973458;28;45526;-56
2022/03/26 04:31:27;;;;;;;4.53;3.60;;;17.50;48.50;;;;;;4978891;28;45567;-53
2022/03/26 04:33:53;;;;;;;4.28;3.65;;;17.50;48.50;;;;;;4980492;28;45042;-56
2022/03/26 04:36:20;;;;;;;4.80;3.53;;;17.50;48.50;;;;;;4983677;28;45273;-55
2022/03/26 04:38:47;;;;;;;3.92;3.42;;;17.50;48.50;;;;;;4985528;28;45260;-54
2022/03/26 04:41:14;;;;;;;4.78;4.00;;;17.50;48.60;;;;;;4984281;28;45531;-52
2022/03/26 04:43:40;;;;;;;4.00;3.60;;;17.50;48.50;;;;;;4986056;28;45473;-58
2022/03/26 04:46:05;;;;;;;3.92;3.58;;;17.50;48.50;;;;;;4985138;28;45565;-56
2022/03/26 04:48:31;;;;;;;3.70;3.38;;;17.50;48.50;;;;;;4987975;28;45346;-56
2022/03/26 04:50:57;;;;;;;3.92;3.42;;;17.50;48.50;;;;;;4990453;28;44822;-56
2022/03/26 04:53:23;;;;;;;5.18;3.55;;;17.50;48.50;;;;;;4987256;28;45314;-55
2022/03/26 04:55:49;;;;;;;5.05;3.60;;;17.50;48.60;;;;;;4989139;28;46149;-54
2022/03/26 04:58:14;;;;;;;3.95;3.55;;;17.40;48.50;;;;;;4986753;28;46530;-54
2022/03/26 05:00:40;;;;;;;4.47;3.88;;;17.50;48.60;;;;;;4981644;28;45899;-55
2022/03/26 05:03:07;;;;;;;4.18;3.63;;;17.40;48.50;;;;;;4963589;28;45683;-55
2022/03/26 05:05:32;;;;;;;4.78;4.13;;;17.40;48.50;;;;;;4948324;28;45384;-57
2022/03/26 05:07:59;;;;;;;4.00;3.20;;;17.40;48.50;;;;;;4969749;28;45385;-54
2022/03/26 05:10:27;;;;;;;3.78;3.22;;;17.40;48.50;;;;;;4965428;28;44986;-55
2022/03/26 05:12:53;;;;;;;3.90;3.50;;;17.40;48.50;;;;;;4940280;28;45597;-55
2022/03/26 05:15:21;;;;;;;4.45;3.58;;;17.40;48.50;;;;;;4967257;28;45924;-54
2022/03/26 05:17:47;;;;;;;5.05;3.67;;;17.40;48.50;;;;;;4965834;28;46341;-57
2022/03/26 05:20:13;;;;;;;3.97;3.40;;;17.40;48.60;;;;;;4969299;28;45605;-55
2022/03/26 05:22:39;;;;;;;3.75;3.38;;;17.40;48.60;;;;;;4963110;28;45649;-54
2022/03/26 05:25:06;;;;;;;4.40;3.40;;;17.40;48.60;;;;;;4962919;28;44901;-56
2022/03/26 05:27:32;;;;;;;3.65;3.22;;;17.40;48.60;;;;;;4965989;28;46280;-58
2022/03/26 05:29:57;;;;;;;5.00;4.00;;;17.40;48.60;;;;;;4963522;28;45246;-56
2022/03/26 05:32:23;;;;;;;3.88;3.47;;;17.40;48.60;;;;;;4964430;28;45532;-57
2022/03/26 05:34:50;;;;;;;3.65;3.30;;;17.40;48.60;;;;;;4965018;28;45108;-56
2022/03/26 05:37:16;;;;;;;3.97;3.38;;;17.40;48.60;;;;;;4966102;28;46787;-54
2022/03/26 05:39:42;;;;;;;4.05;3.65;;;17.40;48.60;;;;;;4962954;28;45733;-56
2022/03/26 05:42:08;;;;;;;4.63;3.80;;;17.40;48.50;;;;;;4947310;28;45514;-52
2022/03/26 05:44:33;;;;;;;3.83;3.42;;;17.40;48.50;;;;;;4964003;28;45304;-55
2022/03/26 05:47:00;;;;;;;3.88;3.42;;;17.40;48.50;;;;;;4946929;28;46177;-58
2022/03/26 05:49:26;;;;;;;3.88;3.50;;;17.40;48.50;;;;;;4967432;28;45613;-58
2022/03/26 05:51:51;;;;;;;4.45;3.85;;;17.40;48.50;;;;;;4966054;28;45370;-55
2022/03/26 05:54:17;;;;;;;4.85;3.20;;;17.40;48.50;;;;;;4963681;28;45838;-57
2022/03/26 05:56:51;;;;;;;3.83;3.40;;;17.50;48.50;;;;;;4965398;28;45758;-56
2022/03/26 05:59:18;;;;;;;4.97;3.70;;;17.40;48.40;;;;;;4951826;28;45302;-56
2022/03/26 06:01:43;;;;;;;4.78;3.80;;;17.50;48.30;;;;;;4969410;28;45111;-55
2022/03/26 06:04:09;;;;;;;4.63;3.63;;;17.80;47.90;;;;;;4989274;28;45245;-53
2022/03/26 06:06:34;;;;;;;4.38;3.53;;;18.20;46.90;;;;;;5001428;28;46815;-54
2022/03/26 06:09:00;;;;;;;4.95;3.72;;;18.50;46.20;;;;;;4989480;28;44676;-55
2022/03/26 06:11:26;;;;;;;4.72;3.90;;;18.70;45.80;;;;;;4984830;28;46207;-55
2022/03/26 06:13:52;;;;;;;4.03;3.53;;;18.90;45.40;;;;;;4986014;28;45563;-54
2022/03/26 06:16:17;;;;;;;4.25;3.65;;;19.00;45.10;;;;;;4987778;28;46320;-55
2022/03/26 06:18:43;;;;;;;5.32;4.07;;;19.20;44.80;;;;;;4989176;28;45570;-56
2022/03/26 06:21:08;;;;;;;4.03;3.63;;;18.80;45.20;;;;;;4992103;28;45575;-53
2022/03/26 06:23:34;;;;;;;4.43;3.78;;;18.30;46.20;;;;;;4989604;28;45515;-57
2022/03/26 06:26:00;;;;;;;3.97;3.35;;;18.10;46.90;;;;;;4986596;28;45391;-55
2022/03/26 06:28:25;;;;;;;4.10;3.45;;;17.90;47.30;;;;;;4982973;28;45613;-55
2022/03/26 06:30:51;;;;;;;4.10;3.70;;;17.70;47.50;;;;;;4987476;28;45633;-57
2022/03/26 06:33:17;;;;;;;4.85;3.67;;;17.70;47.80;;;;;;4990372;28;46436;-57
2022/03/26 06:35:43;;;;;;;3.92;3.38;;;17.70;47.90;;;;;;4984350;28;46026;-58
2022/03/26 06:38:10;;;;;;;4.25;3.75;;;17.60;47.90;;;;;;4994371;28;45222;-57
2022/03/26 06:40:37;;;;;;;3.95;3.53;;;17.60;48.00;;;;;;4986123;28;45447;-56
2022/03/26 06:43:03;;;;;;;3.67;3.28;;;17.60;48.00;;;;;;4989754;28;45389;-56
2022/03/26 06:45:28;;;;;;;4.15;3.42;;;17.60;48.00;;;;;;4986492;28;45526;-54
2022/03/26 06:47:54;;;;;;;4.55;4.00;;;17.60;48.00;;;;;;5004444;28;44884;-55
2022/03/26 06:50:20;;;;;;;5.35;3.58;;;17.60;48.00;;;;;;4985900;28;45703;-52
2022/03/26 06:52:45;;;;;;;3.75;3.35;;;17.60;48.00;;;;;;4991258;28;44668;-55
2022/03/26 06:55:11;;;;;;;3.58;3.28;;;17.60;48.00;;;;;;4984089;28;46128;-55
2022/03/26 06:57:37;;;;;;;4.20;3.80;;;17.60;48.00;;;;;;4987266;28;45295;-55
2022/03/26 07:00:04;;;;;;;4.63;3.65;;;17.60;48.00;;;;;;4989007;28;45341;-54
2022/03/26 07:02:30;;;;;;;4.10;3.60;;;17.60;47.90;;;;;;4982075;28;45509;-57
2022/03/26 07:04:56;;;;;;;3.42;3.13;;;17.60;47.90;;;;;;4983435;28;46959;-54
2022/03/26 07:07:21;;;;;;;3.33;3.03;;;17.70;47.90;;;;;;4988800;28;45460;-57
2022/03/26 07:09:47;;;;;;;3.75;3.08;;;17.70;47.80;;;;;;4986887;28;45279;-55
2022/03/26 07:12:12;;;;;;;4.00;3.60;;;17.70;47.80;;;;;;4987059;28;45364;-55
2022/03/26 07:14:38;;;;;;;3.30;3.00;;;17.80;47.80;;;;;;4980874;28;47068;-56
2022/03/26 07:17:04;;;;;;;3.80;3.30;;;17.80;47.80;;;;;;4986955;28;45275;-57
2022/03/26 07:19:30;;;;;;;4.30;3.38;;;17.70;47.80;;;;;;4990400;28;45368;-58
2022/03/26 07:21:55;;;;;;;4.80;3.75;;;17.80;47.80;;;;;;4985542;28;45797;-54
2022/03/26 07:24:21;;;;;;;3.42;3.10;;;17.80;47.80;;;;;;4998817;28;46177;-57
2022/03/26 07:26:47;;;;;;;3.80;3.40;;;17.80;47.80;;;;;;4983192;28;45197;-57
2022/03/26 07:29:12;;;;;;;4.32;3.55;;;17.80;47.80;;;;;;4988228;28;45072;-57
2022/03/26 07:31:38;;;;;;;3.80;3.45;;;17.80;47.80;;;;;;4985939;28;45612;-56
2022/03/26 07:34:03;;;;;;;4.28;3.63;;;17.80;47.80;;;;;;4986199;28;44947;-57
2022/03/26 07:36:29;;;;;;;4.05;3.47;;;17.80;47.80;;;;;;4981811;28;45185;-58
2022/03/26 07:38:55;;;;;;;3.50;3.17;;;17.80;47.80;;;;;;4989493;28;45503;-53
2022/03/26 07:41:21;;;;;;;3.85;3.28;;;17.80;47.90;;;;;;4990358;28;45450;-53
2022/03/26 07:43:47;;;;;;;3.28;2.95;;;17.80;47.80;;;;;;4982995;28;46098;-57
2022/03/26 07:46:14;;;;;;;3.92;3.17;;;17.80;47.80;;;;;;4983902;28;45045;-53
2022/03/26 07:48:39;;;;;;;3.50;3.20;;;17.80;47.80;;;;;;4986188;28;45555;-58
2022/03/26 07:51:05;;;;;;;3.15;2.85;;;17.80;47.80;;;;;;4983518;28;45148;-53
2022/03/26 07:53:31;;;;;;;3.83;3.10;;;17.80;47.80;;;;;;4988542;28;46179;-57
2022/03/26 07:55:57;;;;;;;3.90;3.38;;;17.80;47.80;;;;;;4984497;28;46278;-57
2022/03/26 07:58:22;;;;;;;4.00;3.30;;;17.80;47.80;;;;;;4977546;28;45381;-57
2022/03/26 08:00:49;;;;;;;3.88;3.35;;;17.80;47.80;;;;;;4981547;28;45545;-53
2022/03/26 08:03:14;;;;;;;4.10;3.65;;;17.80;47.80;;;;;;4959113;28;45202;-55
2022/03/26 08:05:40;;;;;;;3.50;3.00;;;17.80;47.80;;;;;;4947656;28;45722;-57
2022/03/26 08:08:06;;;;;;;3.85;3.35;;;17.80;47.80;;;;;;4952648;28;45630;-57
2022/03/26 08:10:32;;;;;;;3.50;3.20;;;17.90;47.90;;;;;;4962793;28;45773;-55
2022/03/26 08:12:58;;;;;;;3.67;3.30;;;17.90;47.90;;;;;;4943533;28;46081;-51
2022/03/26 08:15:23;;;;;;;3.90;3.50;;;17.90;47.90;;;;;;4944482;28;45817;-58
2022/03/26 08:17:49;;;;;;;4.35;3.70;;;17.90;47.80;;;;;;4943210;28;45449;-55
2022/03/26 08:20:14;;;;;;;3.72;3.30;;;17.90;47.70;;;;;;4964586;28;45328;-57
2022/03/26 08:22:41;;;;;;;3.75;3.35;;;17.90;47.70;;;;;;4960483;28;45589;-56
2022/03/26 08:25:09;;;;;;;4.30;3.65;;;18.00;47.80;;;;;;4949265;28;45268;-55
2022/03/26 08:27:36;;;;;;;3.55;3.20;;;18.00;47.80;;;;;;4940425;28;45819;-58
2022/03/26 08:30:03;;;;;;;3.75;3.20;;;18.00;47.70;;;;;;4959846;28;45088;-58
2022/03/26 08:32:29;;;;;;;3.40;3.10;;;18.00;47.70;;;;;;4959957;28;45469;-52
2022/03/26 08:34:54;;;;;;;4.32;3.42;;;18.00;47.70;;;;;;4943760;28;45345;-53
2022/03/26 08:37:20;;;;;;;3.75;3.30;;;18.00;47.70;;;;;;4961262;28;45004;-57
2022/03/26 08:39:46;;;;;;;5.45;3.75;;;18.00;47.70;;;;;;4961207;28;44982;-56
2022/03/26 08:42:11;;;;;;;3.70;3.30;;;18.00;47.60;;;;;;4964273;28;46256;-55
2022/03/26 08:44:37;;;;;;;3.35;3.05;;;18.00;47.60;;;;;;4961460;28;45597;-57
2022/03/26 08:47:05;;;;;;;4.00;3.55;;;18.10;47.70;;;;;;4956005;28;45965;-57
2022/03/26 08:49:32;;;;;;;3.47;3.15;;;18.10;47.70;;;;;;4962477;28;45362;-57
2022/03/26 08:51:57;;;;;;;3.97;3.40;;;18.10;47.70;;;;;;4960028;28;46178;-57
2022/03/26 08:54:23;;;;;;;3.75;3.10;;;18.10;47.60;;;;;;4962570;28;45914;-55
2022/03/26 08:56:49;;;;;;;4.28;3.42;;;18.10;47.60;;;;;;4960765;28;44725;-57
2022/03/26 08:59:14;;;;;;;4.40;3.22;;;18.10;47.60;;;;;;4963240;28;45118;-54
2022/03/26 09:01:40;;;;;;;3.90;3.50;;;18.10;47.60;;;;;;4962188;28;47261;-59
2022/03/26 09:04:06;;;;;;;3.33;2.88;;;18.10;47.60;;;;;;4930532;28;45052;-54
2022/03/26 09:06:31;;;;;;;3.28;2.95;;;18.10;47.60;;;;;;4966414;28;44803;-56
2022/03/26 09:08:58;;;;;;;3.45;3.15;;;18.20;47.60;;;;;;4965208;28;45667;-55
2022/03/26 09:11:24;;;;;;;3.10;2.78;;;18.20;47.50;;;;;;4966562;28;46188;-57
2022/03/26 09:13:49;;;;;;;4.00;3.22;;;18.20;47.50;;;;;;4962688;28;45667;-54
2022/03/26 09:16:15;;;;;;;4.93;3.65;;;18.20;47.50;;;;;;4964912;28;45577;-57
2022/03/26 09:18:41;;;;;;;4.22;3.78;;;18.20;47.50;;;;;;4962695;28;45342;-54
2022/03/26 09:21:07;;;;;;;3.42;2.90;;;18.20;47.50;;;;;;4968200;28;45271;-58
2022/03/26 09:23:33;;;;;;;3.83;3.50;;;18.20;47.50;;;;;;4969523;28;45659;-56
2022/03/26 09:26:00;;;;;;;3.85;3.40;;;18.30;47.60;;;;;;4963819;28;45381;-56
2022/03/26 09:28:26;;;;;;;4.20;3.55;;;18.20;47.50;;;;;;4963212;28;45035;-56
2022/03/26 09:30:51;;;;;;;4.03;3.40;;;18.30;48.10;;;;;;4965491;28;46289;-56
2022/03/26 09:33:17;;;;;;;3.75;3.35;;;18.30;47.50;;;;;;4961439;28;45466;-53
2022/03/26 09:35:42;;;;;;;3.92;3.38;;;18.30;47.50;;;;;;4966514;28;45521;-53
2022/03/26 09:38:08;;;;;;;4.00;3.60;;;18.30;47.50;;;;;;4957661;28;45409;-61
2022/03/26 09:40:33;;;;;;;3.63;3.03;;;18.30;47.50;;;;;;4964516;28;47095;-59
2022/03/26 09:42:59;;;;;;;4.95;3.60;;;18.30;47.50;;;;;;4965798;28;45429;-56
2022/03/26 09:45:24;;;;;;;4.18;3.05;;;18.30;47.50;;;;;;4966952;28;45705;-51
2022/03/26 09:47:51;;;;;;;4.07;3.42;;;18.30;47.40;;;;;;4962209;28;45278;-57
2022/03/26 09:50:19;;;;;;;4.32;3.30;;;18.30;47.40;;;;;;4948985;28;45566;-54
2022/03/26 09:52:44;;;;;;;3.95;3.25;;;18.30;47.40;;;;;;4960667;28;45686;-54
2022/03/26 09:55:11;;;;;;;3.90;3.25;;;18.40;47.50;;;;;;4964334;28;44995;-59
2022/03/26 09:57:37;;;;;;;3.53;3.22;;;18.40;47.40;;;;;;4963098;28;45608;-57
2022/03/26 10:00:03;;;;;;;4.78;3.22;;;18.40;47.40;;;;;;4948681;28;46139;-56
2022/03/26 10:02:29;;;;;;;4.53;3.53;;;18.40;47.40;;;;;;4970858;28;45532;-54
2022/03/26 10:04:55;;;;;;;3.28;2.97;;;18.40;47.40;;;;;;4970898;28;44741;-55
2022/03/26 10:07:28;;;;;;;3.42;3.10;;;18.40;47.40;;;;;;4992023;28;45362;-56
2022/03/26 10:09:55;;;;;;;3.67;3.28;;;18.40;47.40;;;;;;4985581;28;46069;-52
2022/03/26 10:12:25;;;;;;;3.60;3.30;;;18.40;47.40;;;;;;4982453;28;45462;-54
2022/03/26 10:14:58;;;;;;;3.92;3.15;;;18.40;47.40;;;;;;4979764;28;45234;-57
2022/03/26 10:17:28;;;;;;;7.32;5.85;;;18.50;47.50;;;;;;4975378;28;45475;-52
2022/03/26 10:20:00;;;;;;;9.52;5.80;;;18.50;46.90;;;;;;4970499;28;45686;-53
2022/03/26 10:22:32;;;;;;;16.33;7.53;;;18.50;46.60;;;;;;4970330;28;45469;-55
2022/03/26 10:25:14;;;;;;;11.82;8.05;;;18.50;46.30;;;;;;4970103;28;45406;-54
2022/03/26 10:27:59;;;;;;;12.77;8.90;;;18.50;45.70;;;;;;4969955;28;44842;-55
2022/03/26 10:33:21;;;;;;;13.57;7.93;;;18.50;45.60;;;;;;4975632;28;45328;-56
2022/03/26 10:35:56;;;;;;;12.82;7.95;;;18.50;45.60;;;;;;4975424;28;45028;-54
2022/03/26 10:38:42;;;;;;;12.65;7.93;;;18.50;45.60;;;;;;4977369;28;45275;-54
2022/03/26 10:41:08;;;;;;;12.13;7.80;;;18.50;45.60;;;;;;4972178;28;45280;-56
2022/03/26 10:43:34;;;;;;;12.50;8.90;;;18.50;45.90;;;;;;4972393;28;45567;-53
2022/03/26 10:46:01;;;;;;;12.90;7.38;;;18.50;45.90;;;;;;4975293;28;45518;-58
2022/03/26 10:48:45;;;;;;;15.65;8.05;;;18.60;46.00;;;;;;4974942;28;45482;-55
2022/03/26 10:51:13;;;;;;;13.80;7.93;;;18.60;45.80;;;;;;4977262;28;46083;-60
2022/03/26 10:53:43;;;;;;;12.35;8.55;;;18.60;46.00;;;;;;4972538;28;45275;-54
2022/03/26 10:56:11;;;;;;;13.35;7.95;;;18.50;46.00;;;;;;4971787;28;45529;-56
2022/03/26 10:58:37;;;;;;;11.60;7.35;;;18.60;46.00;;;;;;4971435;28;45252;-55
2022/03/26 11:01:03;;;;;;;10.07;7.43;;;18.60;46.00;;;;;;4952237;28;46030;-56
2022/03/26 11:03:28;;;;;;;14.27;8.10;;;18.60;46.00;;;;;;4957800;28;44748;-56
2022/03/26 11:05:55;;;;;;;11.48;7.82;;;18.60;46.00;;;;;;4951015;28;44998;-53
2022/03/26 11:08:22;;;;;;;11.88;7.60;;;18.50;46.00;;;;;;4949651;28;45167;-52
2022/03/26 11:10:48;;;;;;;12.43;8.05;;;18.60;46.70;;;;;;4927132;28;46344;-59
2022/03/26 11:13:13;;;;;;;11.32;7.47;;;18.60;46.10;;;;;;4935037;28;45526;-55
2022/03/26 11:15:42;;;;;;;10.23;7.40;;;18.60;46.10;;;;;;4900131;28;45047;-54
2022/03/26 11:18:18;;;;;;;13.02;7.65;;;18.60;46.10;;;;;;4914859;28;45222;-57
2022/03/26 11:21:12;;;;;;;15.18;7.72;;;18.60;46.10;;;;;;4953028;28;45944;-55
2022/03/26 11:23:56;;;;;;;;;;;18.70;46.20;;;;;;4950508;28;45060;-54
2022/03/26 11:26:33;;;;;;;8.02;5.82;;;18.60;46.20;;;;;;4953831;28;45510;-53
2022/03/26 11:29:21;;;;;;;12.02;6.82;;;18.70;46.30;;;;;;4937679;28;45208;-57
2022/03/26 11:31:52;;;;;;;11.52;7.05;;;18.70;46.30;;;;;;4947781;28;45324;-53
2022/03/26 11:34:18;;;;;;;9.15;6.55;;;18.70;47.00;;;;;;4950479;28;45564;-54
2022/03/26 11:36:44;;;;;;;10.43;6.35;;;18.70;46.40;;;;;;4937720;28;45314;-53
2022/03/26 11:39:17;;;;;;;14.73;6.85;;;18.80;46.30;;;;;;4955609;28;45554;-56
2022/03/26 11:41:44;;;;;;;14.20;7.07;;;18.80;46.20;;;;;;4950100;28;45246;-56
2022/03/26 11:44:10;;;;;;;12.38;7.45;;;18.80;46.20;;;;;;4953044;28;45220;-53
2022/03/26 11:52:29;;;;;;;13.55;6.70;;;18.80;45.70;;;;;;4951375;28;46290;-57
2022/03/26 11:55:01;;;;;;;10.20;6.45;;;18.90;45.60;;;;;;4937606;28;45574;-56
2022/03/26 11:57:27;;;;;;;9.82;6.95;;;18.90;45.30;;;;;;4956178;28;45044;-54
2022/03/26 11:59:53;;;;;;;11.27;7.60;;;18.90;45.40;;;;;;4955256;28;44772;-55
2022/03/26 12:02:27;;;;;;;10.52;6.80;;;18.90;45.50;;;;;;4936026;28;46073;-57
2022/03/26 12:04:58;;;;;;;10.88;7.32;;;18.90;45.00;;;;;;4954891;28;45335;-57
2022/03/26 12:07:28;;;;;;;14.27;7.55;;;19.00;44.90;;;;;;4933634;28;44906;-58
2022/03/26 12:10:23;;;;;;;12.10;6.80;;;19.00;44.90;;;;;;4920788;28;45591;-56
2022/03/26 12:12:58;;;;;;;12.75;7.20;;;19.00;44.30;;;;;;4913602;28;46288;-57
2022/03/26 12:15:25;;;;;;;10.18;6.32;;;19.00;44.80;;;;;;4953956;28;45410;-54
2022/03/26 12:18:11;;;;;;;10.82;7.03;;;19.00;44.80;;;;;;4942731;28;45230;-57
2022/03/26 12:20:43;;;;;;;13.50;7.40;;;19.00;44.50;;;;;;4950591;28;44694;-56
2022/03/26 12:23:10;;;;;;;12.77;7.03;;;19.10;44.20;;;;;;4955079;28;46171;-61
2022/03/26 12:25:54;;;;;;;11.15;7.30;;;19.10;44.20;;;;;;4955079;28;45414;-57
2022/03/26 12:28:42;;;;;;;9.93;7.00;;;19.10;44.00;;;;;;4939374;28;45402;-55
2022/03/26 12:31:13;;;;;;;12.82;7.38;;;19.10;43.60;;;;;;4948109;28;45376;-56
2022/03/26 12:33:46;;;;;;;9.65;7.13;;;19.10;43.70;;;;;;4930676;28;45632;-59
2022/03/26 12:36:13;;;;;;;13.40;7.45;;;19.10;43.50;;;;;;4929932;28;45631;-58
2022/03/26 12:38:39;;;;;;;16.60;7.13;;;19.10;43.90;;;;;;4951850;28;45548;-53
2022/03/26 12:41:06;;;;;;;15.65;6.38;;;19.10;43.80;;;;;;4947709;28;45329;-57
2022/03/26 12:43:32;;;;;;;17.13;7.82;;;19.20;43.90;;;;;;4931553;28;47104;-57
2022/03/26 12:45:58;;;;;;;13.45;7.80;;;19.20;43.80;;;;;;4946731;28;45216;-59
2022/03/26 12:48:26;;;;;;;15.65;7.18;;;19.20;43.70;;;;;;4952882;28;45431;-55
2022/03/26 12:50:52;;;;;;;12.98;7.50;;;19.20;43.60;;;;;;4954268;28;45286;-53
2022/03/26 12:53:18;;;;;;;11.65;6.70;;;19.20;43.50;;;;;;4939542;28;45961;-56
2022/03/26 12:55:56;;;;;;;12.00;6.75;;;19.20;43.50;;;;;;4959194;28;45288;-60
2022/03/26 13:01:08;;;;;;;15.00;7.47;;;19.20;43.50;;;;;;4933911;28;45147;-57
2022/03/26 13:03:34;;;;;;;10.40;6.88;;;19.20;43.40;;;;;;4952244;28;46177;-53
2022/03/26 13:06:16;;;;;;;12.98;7.28;;;19.30;43.20;;;;;;4939092;28;45066;-55
2022/03/26 13:08:49;;;;;;;13.95;7.22;;;19.20;43.10;;;;;;4933329;28;45140;-55
2022/03/26 13:11:14;;;;;;;14.43;7.70;;;19.30;43.10;;;;;;4954453;28;44852;-56
2022/03/26 13:13:43;;;;;;;15.90;6.68;;;19.20;43.30;;;;;;4957709;28;45584;-56
2022/03/26 13:16:13;;;;;;;13.85;7.32;;;19.30;43.20;;;;;;4951958;28;45203;-56
2022/03/26 13:18:42;;;;;;;11.43;6.65;;;19.30;43.10;;;;;;4954994;28;44680;-56
2022/03/26 13:21:08;;;;;;;9.38;5.75;;;19.30;43.20;;;;;;4952700;28;44979;-57
2022/03/26 13:23:33;;;;;;;12.45;7.20;;;19.30;43.00;;;;;;4962026;28;44968;-58
2022/03/26 13:26:02;;;;;;;11.10;6.30;;;19.30;42.90;;;;;;4956175;28;44921;-55
2022/03/26 13:28:35;;;;;;;12.45;6.50;;;19.30;42.80;;;;;;4947877;28;45417;-54
2022/03/26 13:31:15;;;;;;;;;;;19.30;42.60;;;;;;4950620;28;44806;-56
2022/03/26 13:33:41;;;;;;;11.50;6.38;;;19.30;42.70;;;;;;4960730;28;46103;-57
2022/03/26 13:36:07;;;;;;;13.63;6.38;;;19.30;42.70;;;;;;4934819;28;44843;-53
2022/03/26 13:38:39;;;;;;;11.13;5.68;;;19.30;42.70;;;;;;4955344;28;45350;-56
2022/03/26 13:41:22;;;;;;;8.70;5.40;;;19.40;42.60;;;;;;4950478;28;45282;-57
2022/03/26 13:43:48;;;;;;;11.00;5.70;;;19.40;42.30;;;;;;4940381;28;45933;-54
2022/03/26 13:46:14;;;;;;;9.73;5.65;;;19.30;42.50;;;;;;4954634;28;45514;-52
2022/03/26 13:48:56;;;;;;;12.25;6.32;;;19.30;42.50;;;;;;4951925;28;45256;-53
2022/03/26 13:51:25;;;;;;;10.48;6.07;;;19.40;42.20;;;;;;4954424;28;45186;-53
2022/03/26 13:53:52;;;;;;;11.45;5.47;;;19.40;42.40;;;;;;4935536;28;47215;-55
2022/03/26 13:56:17;;;;;;;16.38;5.78;;;19.40;42.40;;;;;;4952940;28;45251;-59
2022/03/26 13:58:43;;;;;;;13.77;5.50;;;19.40;42.30;;;;;;4953695;28;45552;-53
2022/03/26 14:01:09;;;;;;;12.15;5.30;;;19.40;42.30;;;;;;4922980;28;45538;-58
2022/03/26 14:03:41;;;;;;;8.95;4.80;;;19.40;42.30;;;;;;4950236;28;46201;-55
2022/03/26 14:06:07;;;;;;;8.80;4.95;;;19.40;42.00;;;;;;4954198;28;44765;-55
2022/03/26 14:08:32;;;;;;;8.82;5.10;;;19.40;42.20;;;;;;4952262;28;45559;-57
2022/03/26 14:10:58;;;;;;;13.85;5.55;;;19.40;42.00;;;;;;4956316;28;45350;-54
2022/03/26 14:13:24;;;;;;;9.75;5.32;;;19.40;42.00;;;;;;4954321;28;45584;-59
2022/03/26 14:15:50;;;;;;;10.23;5.03;;;19.40;41.90;;;;;;4958905;28;45306;-56
2022/03/26 14:18:16;;;;;;;10.95;4.70;;;19.40;41.80;;;;;;4951538;28;45316;-53
2022/03/26 14:20:41;;;;;;;9.70;4.90;;;19.40;41.80;;;;;;4957178;28;44849;-54
2022/03/26 14:23:08;;;;;;;10.63;4.95;;;19.50;41.90;;;;;;4954473;28;46107;-56
2022/03/26 14:25:35;;;;;;;8.15;4.43;;;19.50;41.80;;;;;;4952041;28;45491;-56
2022/03/26 14:28:02;;;;;;;9.65;5.40;;;19.40;41.80;;;;;;4953989;28;45409;-53
2022/03/26 14:30:27;;;;;;;10.80;5.07;;;19.40;41.70;;;;;;4952968;28;45314;-54
2022/03/26 14:32:53;;;;;;;14.55;5.43;;;19.40;41.90;;;;;;4951457;28;45923;-58
2022/03/26 14:35:19;;;;;;;11.75;5.28;;;19.40;42.10;;;;;;4949464;28;45336;-55
2022/03/26 14:37:45;;;;;;;11.43;5.47;;;19.40;42.10;;;;;;4958670;28;45540;-52
2022/03/26 14:40:11;;;;;;;11.20;4.57;;;19.40;42.20;;;;;;4959979;28;45481;-54
2022/03/26 14:42:37;;;;;;;13.00;4.97;;;19.40;42.30;;;;;;4955561;28;45857;-55
2022/03/26 14:45:03;;;;;;;8.45;4.65;;;19.40;42.30;;;;;;4957119;28;45191;-55
2022/03/26 14:47:30;;;;;;;9.82;4.80;;;19.40;42.30;;;;;;4954625;28;45397;-55
2022/03/26 14:49:55;;;;;;;9.93;4.80;;;19.40;42.40;;;;;;4955355;28;44855;-55
2022/03/26 14:52:21;;;;;;;8.18;4.88;;;19.30;42.40;;;;;;4952987;28;45956;-55
2022/03/26 14:54:46;;;;;;;9.80;4.38;;;19.30;42.50;;;;;;4924155;28;44691;-59
2022/03/26 14:57:12;;;;;;;9.82;4.75;;;19.30;42.50;;;;;;4962765;28;45317;-56
2022/03/26 14:59:37;;;;;;;9.85;4.45;;;19.40;42.70;;;;;;4953986;28;45300;-55
2022/03/26 15:02:03;;;;;;;7.53;4.10;;;19.30;42.60;;;;;;4936954;28;46009;-57
2022/03/26 15:04:29;;;;;;;13.57;4.68;;;19.30;42.60;;;;;;4956899;28;45226;-51
2022/03/26 15:06:55;;;;;;;8.43;4.75;;;19.30;42.70;;;;;;4939191;28;44827;-58
2022/03/26 15:09:20;;;;;;;9.15;3.80;;;19.30;42.70;;;;;;4953575;28;45308;-55
2022/03/26 15:11:46;;;;;;;8.80;4.28;;;19.30;42.70;;;;;;4956566;28;46364;-54
2022/03/26 15:14:12;;;;;;;8.68;4.47;;;19.30;42.80;;;;;;4956264;28;44877;-54
2022/03/26 15:16:37;;;;;;;9.48;4.53;;;19.30;42.80;;;;;;4962100;28;45254;-57
2022/03/26 15:19:03;;;;;;;9.50;4.07;;;19.30;42.80;;;;;;4939375;28;44702;-50
2022/03/26 15:21:28;;;;;;;11.02;4.80;;;19.30;42.90;;;;;;4955493;28;46828;-56
2022/03/26 15:23:54;;;;;;;9.57;4.00;;;19.30;42.90;;;;;;4958429;28;44693;-55
2022/03/26 15:26:19;;;;;;;7.28;3.88;;;19.30;42.90;;;;;;4957854;28;45470;-53
2022/03/26 15:28:45;;;;;;;7.15;3.92;;;19.30;42.90;;;;;;4959308;28;45110;-56
2022/03/26 15:31:11;;;;;;;12.05;3.85;;;19.30;43.00;;;;;;4951735;28;45470;-55
2022/03/26 15:33:36;;;;;;;10.13;4.22;;;19.30;43.00;;;;;;4952897;28;45453;-55
2022/03/26 15:36:02;;;;;;;8.07;3.75;;;19.30;43.10;;;;;;4936200;28;45432;-56
2022/03/26 15:38:28;;;;;;;10.88;3.67;;;19.30;43.10;;;;;;4936996;28;45322;-58
2022/03/26 15:40:54;;;;;;;6.65;3.92;;;19.30;43.20;;;;;;4954852;28;46074;-57
2022/03/26 15:43:20;;;;;;;6.57;3.92;;;19.30;43.20;;;;;;4922912;28;44965;-59
2022/03/26 15:45:46;;;;;;;7.22;4.03;;;19.30;43.30;;;;;;4940105;28;45695;-56
2022/03/26 15:48:12;;;;;;;7.63;3.78;;;19.30;43.30;;;;;;4944602;28;45244;-53
2022/03/26 15:50:37;;;;;;;7.50;3.85;;;19.20;43.30;;;;;;4963583;28;46114;-59
2022/03/26 15:53:03;;;;;;;7.47;3.75;;;19.20;43.40;;;;;;4962649;28;45275;-56
2022/03/26 15:55:29;;;;;;;6.07;3.55;;;19.20;43.50;;;;;;4964641;28;45353;-58
2022/03/26 15:57:56;;;;;;;9.70;3.85;;;19.20;43.50;;;;;;4964962;28;45382;-60
2022/03/26 16:00:22;;;;;;;7.40;3.85;;;19.20;43.60;;;;;;4965099;28;47076;-58
2022/03/26 16:02:48;;;;;;;5.72;3.55;;;19.20;43.70;;;;;;4959626;28;45441;-57
2022/03/26 16:05:13;;;;;;;8.02;3.42;;;19.20;43.60;;;;;;4980067;28;45321;-56
2022/03/26 16:07:39;;;;;;;5.55;3.60;;;19.20;43.70;;;;;;4986201;28;45263;-58
2022/03/26 16:10:05;;;;;;;6.15;3.72;;;19.20;43.80;;;;;;4980576;28;46312;-56
2022/03/26 16:12:32;;;;;;;5.97;3.55;;;19.20;43.80;;;;;;4970773;28;45676;-55
2022/03/26 16:14:58;;;;;;;8.60;3.58;;;19.20;43.80;;;;;;4978903;28;45345;-55
2022/03/26 16:17:23;;;;;;;4.55;3.30;;;19.20;43.80;;;;;;4978714;28;44847;-57
2022/03/26 16:19:49;;;;;;;7.47;3.75;;;19.20;43.90;;;;;;4980606;28;45290;-59
2022/03/26 16:22:17;;;;;;;8.07;3.80;;;19.20;43.90;;;;;;4982729;28;45465;-54
2022/03/26 16:24:45;;;;;;;5.95;3.83;;;19.20;44.00;;;;;;4993596;28;45544;-55
2022/03/26 16:27:13;;;;;;;5.72;3.72;;;19.20;44.00;;;;;;4982046;28;45159;-56
2022/03/26 16:29:41;;;;;;;4.88;3.45;;;19.20;44.10;;;;;;4981055;28;45925;-55
2022/03/26 16:32:07;;;;;;;6.78;3.92;;;19.20;44.10;;;;;;4979991;28;45733;-56
2022/03/26 16:34:33;;;;;;;7.07;4.22;;;19.20;44.10;;;;;;4981120;28;44648;-56
2022/03/26 16:36:58;;;;;;;7.18;3.55;;;19.20;44.20;;;;;;4986200;28;46095;-54
2022/03/26 16:39:25;;;;;;;9.00;3.47;;;19.20;44.20;;;;;;4982551;28;46409;-56
2022/03/26 16:41:51;;;;;;;6.85;3.40;;;19.10;44.20;;;;;;4980435;28;45337;-56
2022/03/26 16:44:20;;;;;;;9.13;4.50;;;19.10;44.20;;;;;;4981739;28;45734;-57
2022/03/26 16:46:46;;;;;;;5.15;3.63;;;19.10;44.30;;;;;;4976848;28;45147;-54
2022/03/26 16:49:13;;;;;;;4.90;3.47;;;19.10;44.30;;;;;;4984431;28;45551;-56
2022/03/26 16:51:41;;;;;;;5.68;3.63;;;19.10;44.30;;;;;;4979816;28;45648;-56
2022/03/26 16:54:08;;;;;;;7.45;3.40;;;19.10;44.40;;;;;;4970078;28;44793;-56
2022/03/26 16:56:36;;;;;;;5.63;4.03;;;19.10;44.30;;;;;;4979671;28;45493;-55
2022/03/26 16:59:02;;;;;;;6.32;4.13;;;19.10;44.40;;;;;;4980103;28;45964;-54